createdAt,value
2023-02-02T00:00:35.684Z,63.9
2023-02-02T00:01:36.686Z,63.9
2023-02-02T00:02:37.705Z,64.6
2023-02-02T00:03:38.717Z,65.1
2023-02-02T00:04:39.806Z,65.3
2023-02-02T00:05:40.709Z,65.1
2023-02-02T00:06:41.713Z,65.2
2023-02-02T00:07:42.714Z,65.3
2023-02-02T00:08:43.669Z,65.3
2023-02-02T00:09:44.709Z,65
2023-02-02T00:10:45.730Z,64.6
2023-02-02T00:11:46.699Z,64.7
2023-02-02T00:12:47.692Z,64.7
2023-02-02T00:13:48.660Z,64.7
2023-02-02T00:14:49.691Z,64.5
2023-02-02T00:15:50.711Z,64.4
2023-02-02T00:16:51.921Z,64.3
2023-02-02T00:17:52.852Z,64.3
2023-02-02T00:18:53.825Z,64.1
2023-02-02T00:19:54.721Z,63.7
2023-02-02T00:20:55.747Z,63.6
2023-02-02T00:21:56.769Z,63.7
2023-02-02T00:22:57.890Z,63.9
2023-02-02T00:23:58.845Z,63.8
2023-02-02T00:24:59.898Z,63.7
2023-02-02T00:26:00.865Z,63.3
2023-02-02T00:27:01.804Z,63.6
2023-02-02T00:28:02.844Z,63.6
2023-02-02T00:29:03.887Z,63.6
2023-02-02T00:30:04.845Z,63.5
2023-02-02T00:31:05.711Z,63.4
2023-02-02T00:32:06.705Z,63
2023-02-02T00:33:07.669Z,63.2
2023-02-02T00:34:08.683Z,63.4
2023-02-02T00:35:09.704Z,63.4
2023-02-02T00:36:10.726Z,63.2
2023-02-02T00:37:11.825Z,63.1
2023-02-02T00:38:12.694Z,63.2
2023-02-02T00:39:13.625Z,63.2
2023-02-02T00:40:14.702Z,62.9
2023-02-02T00:41:15.789Z,62.8
2023-02-02T00:42:16.825Z,62.7
2023-02-02T00:43:17.894Z,62.7
2023-02-02T00:44:18.826Z,63
2023-02-02T00:45:19.945Z,63.3
2023-02-02T00:46:20.880Z,63.2
2023-02-02T00:47:21.846Z,63.3
2023-02-02T00:48:22.869Z,63.3
2023-02-02T00:49:23.845Z,63.4
2023-02-02T00:50:24.813Z,63.5
2023-02-02T00:51:25.885Z,63.5
2023-02-02T00:52:26.886Z,63.8
2023-02-02T00:53:27.904Z,63.8
2023-02-02T00:54:28.896Z,63.8
2023-02-02T00:55:29.828Z,63.8
2023-02-02T00:56:30.892Z,63.6
2023-02-02T00:57:31.859Z,63.6
2023-02-02T00:58:32.862Z,63.4
2023-02-02T00:59:33.804Z,63.1
2023-02-02T01:00:34.924Z,62.8
2023-02-02T01:01:35.933Z,62.6
2023-02-02T01:02:36.871Z,62.7
2023-02-02T01:03:37.856Z,62.8
2023-02-02T01:04:38.904Z,62.7
2023-02-02T01:05:39.916Z,62.9
2023-02-02T01:06:40.909Z,62.9
2023-02-02T01:07:41.830Z,62.9
2023-02-02T01:08:42.884Z,62.6
2023-02-02T01:09:43.867Z,62.6
2023-02-02T01:10:44.817Z,62.8
2023-02-02T01:11:45.782Z,62.6
2023-02-02T01:12:46.894Z,62.3
2023-02-02T01:13:47.759Z,62.3
2023-02-02T01:14:48.725Z,62.1
2023-02-02T01:15:49.848Z,62
2023-02-02T01:16:50.820Z,62.1
2023-02-02T01:17:51.905Z,62
2023-02-02T01:18:52.815Z,62.4
2023-02-02T01:19:53.986Z,62.5
2023-02-02T01:20:54.885Z,62
2023-02-02T01:21:55.773Z,62.4
2023-02-02T01:22:56.777Z,62.4
2023-02-02T01:23:57.684Z,62.4
2023-02-02T01:24:58.734Z,62.3
2023-02-02T01:25:59.804Z,62.2
2023-02-02T01:27:00.872Z,62
2023-02-02T01:28:01.685Z,62.2
2023-02-02T01:29:02.692Z,62
2023-02-02T01:30:03.646Z,61.8
2023-02-02T01:31:04.768Z,61.5
2023-02-02T01:32:05.916Z,61.2
2023-02-02T01:33:06.864Z,61.2
2023-02-02T01:34:07.923Z,60.8
2023-02-02T01:35:08.905Z,60.9
2023-02-02T01:36:09.705Z,60.9
2023-02-02T01:37:10.738Z,61.1
2023-02-02T01:38:11.704Z,61.2
2023-02-02T01:39:12.615Z,61
2023-02-02T01:40:13.748Z,61
2023-02-02T01:41:14.833Z,61
2023-02-02T01:42:15.912Z,60.9
2023-02-02T01:43:16.884Z,60.6
2023-02-02T01:44:17.904Z,60.4
2023-02-02T01:45:18.798Z,60.1
2023-02-02T01:46:19.919Z,60.1
2023-02-02T01:47:20.764Z,59.2
2023-02-02T01:48:21.643Z,59
2023-02-02T01:49:22.823Z,59.6
2023-02-02T01:50:23.842Z,59.8
2023-02-02T01:51:24.688Z,59.8
2023-02-02T01:52:25.827Z,59.8
2023-02-02T01:53:26.966Z,59.9
2023-02-02T01:54:27.759Z,59.6
2023-02-02T01:55:28.904Z,59.5
2023-02-02T01:56:29.882Z,59.2
2023-02-02T01:57:30.962Z,58.9
2023-02-02T01:58:31.823Z,58.8
2023-02-02T01:59:32.837Z,58.3
2023-02-02T02:00:33.784Z,58.6
2023-02-02T02:01:34.709Z,58.5
2023-02-02T02:02:35.790Z,58.4
2023-02-02T02:05:47.146Z,58.3
2023-02-02T02:06:49.856Z,58.2
2023-02-02T02:07:50.855Z,58
2023-02-02T02:08:51.825Z,58.2
2023-02-02T02:09:52.753Z,58.5
2023-02-02T02:10:53.857Z,58.7
2023-02-02T02:11:54.786Z,58.8
2023-02-02T02:12:55.914Z,58.8
2023-02-02T02:13:56.857Z,58.7
2023-02-02T02:14:57.716Z,58.5
2023-02-02T02:15:58.736Z,58.6
2023-02-02T02:16:59.844Z,58.7
2023-02-02T02:18:00.718Z,58.4
2023-02-02T02:19:01.720Z,58.3
2023-02-02T02:20:02.720Z,58
2023-02-02T02:21:03.760Z,57.8
2023-02-02T02:22:04.859Z,57.8
2023-02-02T02:23:05.939Z,58
2023-02-02T02:24:06.720Z,58.2
2023-02-02T02:25:07.878Z,58.1
2023-02-02T02:26:08.688Z,57.8
2023-02-02T02:27:09.848Z,57.9
2023-02-02T02:28:10.868Z,57.7
2023-02-02T02:29:11.862Z,57.6
2023-02-02T02:30:12.863Z,57.4
2023-02-02T02:31:13.993Z,57.3
2023-02-02T02:32:14.917Z,57.2
2023-02-02T02:33:15.916Z,56.6
2023-02-02T02:34:16.896Z,57.1
2023-02-02T02:35:17.878Z,57.5
2023-02-02T02:36:18.916Z,57.5
2023-02-02T02:37:19.937Z,57.4
2023-02-02T02:38:20.880Z,57.2
2023-02-02T02:39:21.850Z,57
2023-02-02T02:40:22.896Z,57.4
2023-02-02T02:41:23.903Z,57.5
2023-02-02T02:42:24.867Z,57.7
2023-02-02T02:43:25.865Z,57.6
2023-02-02T02:44:27.296Z,57.4
2023-02-02T02:45:28.699Z,58.1
2023-02-02T02:46:29.753Z,58.2
2023-02-02T02:47:30.855Z,57.7
2023-02-02T02:48:31.856Z,57.6
2023-02-02T02:49:32.956Z,57.6
2023-02-02T02:50:33.857Z,57.7
2023-02-02T02:51:34.959Z,57.7
2023-02-02T02:52:35.897Z,57.8
2023-02-02T02:53:36.919Z,57.7
2023-02-02T02:54:38.079Z,57.9
2023-02-02T02:55:38.896Z,57.6
2023-02-02T02:56:39.816Z,57.3
2023-02-02T02:57:40.722Z,57.6
2023-02-02T02:58:41.676Z,57.9
2023-02-02T02:59:42.785Z,58
2023-02-02T03:00:43.731Z,58.1
2023-02-02T03:01:44.939Z,58
2023-02-02T03:02:46.013Z,58.2
2023-02-02T03:03:46.917Z,58.1
2023-02-02T03:04:47.948Z,58
2023-02-02T03:05:48.777Z,57.6
2023-02-02T03:06:49.725Z,57.3
2023-02-02T03:07:50.776Z,57.2
2023-02-02T03:08:51.819Z,57.4
2023-02-02T03:09:52.756Z,57.4
2023-02-02T03:10:53.727Z,57.4
2023-02-02T03:11:54.757Z,57.5
2023-02-02T03:12:55.837Z,57
2023-02-02T03:13:56.882Z,57
2023-02-02T03:14:57.785Z,56.9
2023-02-02T03:15:58.787Z,56.7
2023-02-02T03:17:00.024Z,57
2023-02-02T03:18:01.005Z,57.6
2023-02-02T03:19:02.017Z,57.6
2023-02-02T03:20:02.902Z,57.2
2023-02-02T03:21:03.995Z,57
2023-02-02T03:22:04.936Z,57
2023-02-02T03:23:05.721Z,57.2
2023-02-02T03:24:06.836Z,57.3
2023-02-02T03:25:07.780Z,57.3
2023-02-02T03:26:08.787Z,57.1
2023-02-02T03:27:09.817Z,56.9
2023-02-02T03:28:10.829Z,56.9
2023-02-02T03:29:11.834Z,56.8
2023-02-02T03:30:12.797Z,56.9
2023-02-02T03:31:13.946Z,56.8
2023-02-02T03:32:14.871Z,56.9
2023-02-02T03:33:15.875Z,56.9
2023-02-02T03:34:16.904Z,56.7
2023-02-02T03:35:17.916Z,56.5
2023-02-02T03:36:18.937Z,56.3
2023-02-02T03:37:19.946Z,56
2023-02-02T03:38:20.818Z,55.9
2023-02-02T03:39:21.898Z,55.9
2023-02-02T03:40:22.978Z,56
2023-02-02T03:41:23.899Z,55.4
2023-02-02T03:42:24.945Z,55.4
2023-02-02T03:43:25.876Z,55.5
2023-02-02T03:44:27.302Z,55.7
2023-02-02T03:45:28.898Z,55.6
2023-02-02T03:46:30.010Z,55.8
2023-02-02T03:47:30.956Z,55.8
2023-02-02T03:48:31.937Z,55.9
2023-02-02T03:49:32.958Z,55.7
2023-02-02T03:50:33.957Z,55.6
2023-02-02T03:51:34.768Z,55.6
2023-02-02T03:52:35.946Z,55.5
2023-02-02T03:53:36.822Z,55.3
2023-02-02T03:54:37.977Z,55.1
2023-02-02T03:55:38.876Z,55
2023-02-02T03:56:39.837Z,55.2
2023-02-02T03:57:40.848Z,55.2
2023-02-02T03:58:41.957Z,55.3
2023-02-02T03:59:42.942Z,55.5
2023-02-02T04:00:43.889Z,55.3
2023-02-02T04:01:44.969Z,54.9
2023-02-02T04:02:45.997Z,55
2023-02-02T04:03:46.958Z,55.2
2023-02-02T04:04:47.897Z,55.3
2023-02-02T04:05:48.963Z,55.4
2023-02-02T04:06:49.918Z,55.4
2023-02-02T04:07:50.946Z,54.9
2023-02-02T04:08:52.046Z,54.8
2023-02-02T04:09:53.014Z,54.9
2023-02-02T04:10:54.020Z,55.2
2023-02-02T04:11:54.925Z,55.5
2023-02-02T04:12:55.901Z,55.6
2023-02-02T04:13:57.025Z,55.7
2023-02-02T04:14:57.912Z,55.6
2023-02-02T04:15:59.008Z,55.4
2023-02-02T04:16:59.817Z,55.2
2023-02-02T04:18:00.777Z,55.3
2023-02-02T04:19:01.838Z,55.3
2023-02-02T04:20:02.861Z,55.1
2023-02-02T04:21:03.739Z,55
2023-02-02T04:22:04.876Z,54.9
2023-02-02T04:23:05.827Z,54.8
2023-02-02T04:24:06.766Z,54.5
2023-02-02T04:25:07.797Z,54.2
2023-02-02T04:26:08.801Z,54.3
2023-02-02T04:27:09.799Z,54.4
2023-02-02T04:28:10.850Z,53.9
2023-02-02T04:29:11.787Z,53.9
2023-02-02T04:30:13.007Z,54.3
2023-02-02T04:31:14.038Z,54.6
2023-02-02T04:32:14.939Z,54.3
2023-02-02T04:33:15.912Z,54.6
2023-02-02T04:34:16.946Z,54.8
2023-02-02T04:35:17.940Z,54.4
2023-02-02T04:36:19.039Z,54.7
2023-02-02T04:37:19.948Z,54.4
2023-02-02T04:38:20.868Z,55
2023-02-02T04:39:21.951Z,55.2
2023-02-02T04:40:22.740Z,55.5
2023-02-02T04:41:23.796Z,55.6
2023-02-02T04:42:24.781Z,55.1
2023-02-02T04:43:25.720Z,55
2023-02-02T04:44:27.354Z,55.2
2023-02-02T04:45:29.060Z,54.8
2023-02-02T04:46:30.024Z,54.6
2023-02-02T04:47:30.918Z,54.6
2023-02-02T04:48:31.779Z,54.7
2023-02-02T04:49:32.852Z,54.6
2023-02-02T04:50:33.755Z,54.4
2023-02-02T04:51:34.767Z,54.7
2023-02-02T04:52:35.934Z,55
2023-02-02T04:53:36.839Z,55.1
2023-02-02T04:54:37.839Z,55.3
2023-02-02T04:55:38.996Z,55.3
2023-02-02T04:56:40.104Z,55.3
2023-02-02T04:57:40.939Z,55.4
2023-02-02T04:58:41.896Z,55.5
2023-02-02T04:59:42.946Z,55.5
2023-02-02T05:00:44.062Z,55.3
2023-02-02T05:01:44.938Z,55.2
2023-02-02T05:02:45.897Z,55.2
2023-02-02T05:03:47.020Z,55.2
2023-02-02T05:04:47.996Z,55.3
2023-02-02T05:05:48.897Z,55.3
2023-02-02T05:06:49.978Z,55.2
2023-02-02T05:07:51.019Z,55
2023-02-02T05:08:52.013Z,54.9
2023-02-02T05:09:52.979Z,54.5
2023-02-02T05:10:54.018Z,54.7
2023-02-02T05:11:54.993Z,54.5
2023-02-02T05:12:55.880Z,54.6
2023-02-02T05:13:56.984Z,54.7
2023-02-02T05:14:57.906Z,54.8
2023-02-02T05:15:59.021Z,54.4
2023-02-02T05:17:00.185Z,55
2023-02-02T05:18:00.958Z,55
2023-02-02T05:19:02.016Z,55.3
2023-02-02T05:20:03.034Z,55.4
2023-02-02T05:21:03.964Z,55.2
2023-02-02T05:22:05.074Z,55.2
2023-02-02T05:23:05.979Z,55.1
2023-02-02T05:24:06.978Z,55.5
2023-02-02T05:25:08.060Z,55.7
2023-02-02T05:26:08.962Z,55.6
2023-02-02T05:27:10.090Z,55.5
2023-02-02T05:28:10.973Z,55.5
2023-02-02T05:29:12.040Z,54.8
2023-02-02T05:30:12.939Z,55
2023-02-02T05:31:14.015Z,55.2
2023-02-02T05:32:14.951Z,54.9
2023-02-02T05:33:15.977Z,54.8
2023-02-02T05:34:16.972Z,54.7
2023-02-02T05:35:17.941Z,54.8
2023-02-02T05:36:19.032Z,54.9
2023-02-02T05:37:19.967Z,55.4
2023-02-02T05:38:20.936Z,55.5
2023-02-02T05:39:21.866Z,55
2023-02-02T05:40:22.829Z,55.1
2023-02-02T05:41:23.858Z,54.8
2023-02-02T05:42:24.858Z,55.1
2023-02-02T05:43:25.821Z,55.4
2023-02-02T05:44:27.428Z,55.7
2023-02-02T05:45:28.940Z,55.6
2023-02-02T05:46:29.961Z,55.3
2023-02-02T05:47:30.967Z,55.1
2023-02-02T05:48:31.959Z,55.4
2023-02-02T05:49:32.860Z,55.3
2023-02-02T05:50:33.838Z,55.3
2023-02-02T05:51:34.843Z,55.1
2023-02-02T05:52:35.889Z,55
2023-02-02T05:53:36.866Z,55.1
2023-02-02T05:54:37.921Z,55.5
2023-02-02T05:55:38.862Z,55.9
2023-02-02T05:56:39.907Z,55.9
2023-02-02T05:57:40.826Z,55.6
2023-02-02T05:58:41.899Z,55.7
2023-02-02T05:59:42.826Z,55.6
2023-02-02T06:00:43.859Z,55.9
2023-02-02T06:01:44.870Z,56.4
2023-02-02T06:02:46.007Z,56.6
2023-02-02T06:03:47.126Z,56.5
2023-02-02T06:04:47.962Z,56.9
2023-02-02T06:05:48.976Z,56.7
2023-02-02T06:06:49.841Z,56.6
2023-02-02T06:07:50.846Z,56.6
2023-02-02T06:08:51.858Z,56.8
2023-02-02T06:09:52.857Z,56.8
2023-02-02T06:10:53.863Z,56.6
2023-02-02T06:11:54.862Z,56.6
2023-02-02T06:12:56.027Z,56.7
2023-02-02T06:13:57.057Z,56.5
2023-02-02T06:14:58.045Z,56.6
2023-02-02T06:15:59.071Z,57.3
2023-02-02T06:17:00.105Z,57.6
2023-02-02T06:18:00.979Z,56.7
2023-02-02T06:19:02.058Z,57.5
2023-02-02T06:20:03.085Z,58
2023-02-02T06:21:04.055Z,58.7
2023-02-02T06:22:05.045Z,58.2
2023-02-02T06:23:06.016Z,59.2
2023-02-02T06:24:06.900Z,60
2023-02-02T06:25:08.041Z,60.5
2023-02-02T06:26:09.058Z,60.6
2023-02-02T06:27:10.025Z,60.7
2023-02-02T06:28:11.015Z,61
2023-02-02T06:29:11.928Z,61.3
2023-02-02T06:30:12.880Z,61.3
2023-02-02T06:31:14.103Z,61.2
2023-02-02T06:32:14.982Z,61.2
2023-02-02T06:33:15.958Z,61.8
2023-02-02T06:34:17.019Z,62
2023-02-02T06:35:18.048Z,61.8
2023-02-02T06:36:19.041Z,61.9
2023-02-02T06:37:20.015Z,61.9
2023-02-02T06:38:21.124Z,62.1
2023-02-02T06:39:21.974Z,62.1
2023-02-02T06:40:22.979Z,61.8
2023-02-02T06:41:23.981Z,62.3
2023-02-02T06:42:25.018Z,62.5
2023-02-02T06:43:25.959Z,62.6
2023-02-02T06:44:27.515Z,62.6
2023-02-02T06:45:28.964Z,62.7
2023-02-02T06:46:30.097Z,63
2023-02-02T06:47:31.084Z,63.1
2023-02-02T06:48:31.971Z,63
2023-02-02T06:49:33.043Z,63.1
2023-02-02T06:50:33.999Z,62.8
2023-02-02T06:51:35.003Z,63
2023-02-02T06:52:36.058Z,63.1
2023-02-02T06:53:36.980Z,62.6
2023-02-02T06:54:38.060Z,62.5
2023-02-02T06:55:39.017Z,62.8
2023-02-02T06:56:40.037Z,63.1
2023-02-02T06:57:40.906Z,63
2023-02-02T06:58:41.876Z,63
2023-02-02T06:59:42.878Z,63
2023-02-02T07:00:44.107Z,63
2023-02-02T07:01:45.095Z,63
2023-02-02T07:02:45.856Z,63.1
2023-02-02T07:03:46.930Z,62.9
2023-02-02T07:04:47.851Z,63
2023-02-02T07:05:48.845Z,62.5
2023-02-02T07:06:49.925Z,62.3
2023-02-02T07:07:50.813Z,62.6
2023-02-02T07:09:02.456Z,62.3
2023-02-02T07:09:57.995Z,62.6
2023-02-02T07:11:09.666Z,62.7
2023-02-02T07:11:54.940Z,62.7
2023-02-02T07:12:55.997Z,62.7
2023-02-02T07:13:57.027Z,62.6
2023-02-02T07:14:58.001Z,62.3
2023-02-02T07:15:59.108Z,62.3
2023-02-02T07:17:00.040Z,62.1
2023-02-02T07:18:01.109Z,61.9
2023-02-02T07:19:02.098Z,61.8
2023-02-02T07:20:02.959Z,61.4
2023-02-02T07:21:04.099Z,61.5
2023-02-02T07:22:05.023Z,61.4
2023-02-02T07:23:06.058Z,61.7
2023-02-02T07:24:07.039Z,62.1
2023-02-02T07:25:08.038Z,62
2023-02-02T07:26:09.161Z,62.1
2023-02-02T07:27:10.095Z,62.1
2023-02-02T07:28:10.883Z,62
2023-02-02T07:29:11.988Z,62.3
2023-02-02T07:30:13.045Z,62.2
2023-02-02T07:31:14.077Z,62.4
2023-02-02T07:32:14.845Z,62.3
2023-02-02T07:33:15.885Z,62.4
2023-02-02T07:34:16.860Z,62.3
2023-02-02T07:35:17.920Z,62.1
2023-02-02T07:36:18.987Z,62.1
2023-02-02T07:37:19.947Z,62.1
2023-02-02T07:38:20.868Z,62.2
2023-02-02T07:39:21.938Z,62.3
2023-02-02T07:40:22.902Z,62.3
2023-02-02T07:41:24.039Z,62.5
2023-02-02T07:42:25.023Z,62.4
2023-02-02T07:43:26.019Z,62.7
2023-02-02T07:44:26.931Z,62.7
2023-02-02T07:45:28.344Z,62.7
2023-02-02T07:46:29.050Z,62.6
2023-02-02T07:47:29.939Z,62.3
2023-02-02T07:48:31.078Z,62.3
2023-02-02T07:49:31.924Z,62.2
2023-02-02T07:50:32.992Z,61.9
2023-02-02T07:51:34.086Z,61.8
2023-02-02T07:52:35.024Z,61.5
2023-02-02T07:53:35.913Z,61.4
2023-02-02T07:54:37.023Z,61.4
2023-02-02T07:55:38.019Z,61.3
2023-02-02T07:56:39.041Z,61.2
2023-02-02T07:57:39.981Z,61.4
2023-02-02T07:58:40.980Z,61.5
2023-02-02T07:59:41.939Z,61.3
2023-02-02T08:00:43.123Z,61.5
2023-02-02T08:01:44.179Z,61.2
2023-02-02T08:02:45.036Z,61.1
2023-02-02T08:03:46.188Z,60.8
2023-02-02T08:04:47.037Z,60.8
2023-02-02T08:05:48.019Z,60.9
2023-02-02T08:06:49.081Z,61.1
2023-02-02T08:07:50.019Z,60.8
2023-02-02T08:08:51.081Z,60.3
2023-02-02T08:09:51.874Z,60.4
2023-02-02T08:10:52.905Z,60.2
2023-02-02T08:11:53.859Z,60.5
2023-02-02T08:12:54.924Z,60.7
2023-02-02T08:13:55.968Z,60.4
2023-02-02T08:14:57.002Z,60.6
2023-02-02T08:15:58.118Z,60.4
2023-02-02T08:16:59.078Z,60.4
2023-02-02T08:18:00.184Z,60.5
2023-02-02T08:19:01.106Z,60.6
2023-02-02T08:20:02.060Z,60.5
2023-02-02T08:21:03.081Z,60.5
2023-02-02T08:22:04.040Z,60.6
2023-02-02T08:23:05.074Z,60.6
2023-02-02T08:24:06.136Z,60.5
2023-02-02T08:25:07.121Z,60.1
2023-02-02T08:26:08.059Z,60.1
2023-02-02T08:27:09.046Z,60.1
2023-02-02T08:28:10.022Z,60.3
2023-02-02T08:29:10.851Z,60.2
2023-02-02T08:30:11.969Z,60
2023-02-02T08:31:12.886Z,60
2023-02-02T08:32:14.033Z,59.6
2023-02-02T08:33:14.953Z,59.9
2023-02-02T08:34:15.963Z,59.6
2023-02-02T08:35:16.927Z,59.3
2023-02-02T08:36:18.017Z,59
2023-02-02T08:37:19.198Z,59.1
2023-02-02T08:38:20.062Z,58.9
2023-02-02T08:39:21.073Z,58.6
2023-02-02T08:40:22.054Z,59.2
2023-02-02T08:41:23.071Z,59.8
2023-02-02T08:42:24.081Z,59.4
2023-02-02T08:43:24.943Z,59.3
2023-02-02T08:44:26.891Z,59.4
2023-02-02T08:46:00.875Z,59.7
2023-02-02T08:46:28.155Z,59.9
2023-02-02T08:47:28.991Z,60
2023-02-02T08:48:30.109Z,59.7
2023-02-02T08:49:31.084Z,59.5
2023-02-02T08:50:32.051Z,59.5
2023-02-02T08:51:33.069Z,58.9
2023-02-02T08:52:34.062Z,57.6
2023-02-02T08:53:35.070Z,58
2023-02-02T08:54:36.104Z,57.9
2023-02-02T08:55:37.075Z,58.1
2023-02-02T08:56:38.080Z,58.6
2023-02-02T08:57:39.020Z,58.4
2023-02-02T08:58:40.158Z,58.4
2023-02-02T08:59:40.961Z,58.7
2023-02-02T09:00:41.940Z,58.3
2023-02-02T09:01:43.047Z,58.1
2023-02-02T09:02:44.139Z,58.2
2023-02-02T09:03:45.060Z,58
2023-02-02T09:04:46.064Z,57.8
2023-02-02T09:05:47.065Z,57.7
2023-02-02T09:06:48.140Z,57.3
2023-02-02T09:07:49.021Z,57.7
2023-02-02T09:08:49.983Z,57.2
2023-02-02T09:09:51.141Z,57
2023-02-02T09:10:52.102Z,57.1
2023-02-02T09:11:53.108Z,57.3
2023-02-02T09:12:54.087Z,57.4
2023-02-02T09:13:55.159Z,57
2023-02-02T09:14:56.144Z,56.4
2023-02-02T09:15:56.938Z,55.9
2023-02-02T09:16:58.175Z,55.5
2023-02-02T09:17:59.021Z,55.5
2023-02-02T09:19:00.179Z,55.7
2023-02-02T09:20:01.132Z,55.8
2023-02-02T09:21:02.097Z,56.2
2023-02-02T09:22:03.160Z,56.1
2023-02-02T09:23:04.078Z,55.5
2023-02-02T09:24:05.098Z,55
2023-02-02T09:25:06.079Z,54.5
2023-02-02T09:26:07.100Z,54.5
2023-02-02T09:27:08.101Z,53.5
2023-02-02T09:28:09.071Z,53.3
2023-02-02T09:29:10.119Z,54.3
2023-02-02T09:30:11.097Z,54.8
2023-02-02T09:31:12.155Z,55.1
2023-02-02T09:32:13.184Z,55.4
2023-02-02T09:33:14.075Z,55.2
2023-02-02T09:34:15.017Z,54.7
2023-02-02T09:35:16.168Z,55.2
2023-02-02T09:36:17.098Z,55.7
2023-02-02T09:37:18.061Z,56
2023-02-02T09:38:19.040Z,56.6
2023-02-02T09:39:20.198Z,56.4
2023-02-02T09:40:21.052Z,56.2
2023-02-02T09:41:22.097Z,56.5
2023-02-02T09:42:23.011Z,56.2
2023-02-02T09:43:24.118Z,56.3
2023-02-02T09:44:25.098Z,56.3
2023-02-02T09:45:26.391Z,56.1
2023-02-02T09:46:27.099Z,55.7
2023-02-02T09:47:28.026Z,55.3
2023-02-02T09:48:29.020Z,55.6
2023-02-02T09:49:30.178Z,55.7
2023-02-02T09:50:31.083Z,56
2023-02-02T09:51:32.069Z,56
2023-02-02T09:52:33.038Z,55.6
2023-02-02T09:53:36.573Z,55.6
2023-02-02T09:54:35.139Z,55.9
2023-02-02T09:55:35.994Z,56.4
2023-02-02T09:56:37.061Z,56.9
2023-02-02T09:57:37.991Z,57.4
2023-02-02T09:58:39.177Z,57.4
2023-02-02T09:59:40.201Z,57.2
2023-02-02T10:00:41.097Z,57.1
2023-02-02T10:01:41.996Z,57
2023-02-02T10:02:42.977Z,56.8
2023-02-02T10:03:44.189Z,57.1
2023-02-02T10:04:45.119Z,58.4
2023-02-02T10:05:46.203Z,59.1
2023-02-02T10:06:47.220Z,59.4
2023-02-02T10:07:48.038Z,59.5
2023-02-02T10:08:49.077Z,59.5
2023-02-02T10:09:50.153Z,59.7
2023-02-02T10:10:50.941Z,60.2
2023-02-02T10:11:51.982Z,60.3
2023-02-02T10:12:52.932Z,60.5
2023-02-02T10:13:53.985Z,60.4
2023-02-02T10:14:55.170Z,61.1
2023-02-02T10:15:56.236Z,61.6
2023-02-02T10:16:57.022Z,62
2023-02-02T10:17:58.077Z,62.7
2023-02-02T10:18:59.097Z,62.8
2023-02-02T10:20:00.256Z,62.8
2023-02-02T10:21:01.143Z,63.2
2023-02-02T10:22:02.081Z,63.8
2023-02-02T10:23:03.117Z,64.3
2023-02-02T10:24:04.103Z,64.8
2023-02-02T10:25:05.217Z,65.2
2023-02-02T10:26:06.117Z,65
2023-02-02T10:27:07.240Z,65
2023-02-02T10:28:07.959Z,65.1
2023-02-02T10:29:09.079Z,65.1
2023-02-02T10:30:10.169Z,65
2023-02-02T10:31:11.223Z,65.1
2023-02-02T10:32:12.166Z,65.1
2023-02-02T10:33:12.962Z,64.7
2023-02-02T10:34:14.198Z,64.4
2023-02-02T10:35:15.253Z,63.9
2023-02-02T10:36:16.032Z,63.8
2023-02-02T10:37:16.924Z,64.4
2023-02-02T10:38:17.977Z,64.6
2023-02-02T10:39:19.062Z,64.3
2023-02-02T10:40:20.005Z,64.1
2023-02-02T10:41:20.932Z,63.7
2023-02-02T10:42:21.860Z,63.3
2023-02-02T10:43:23.065Z,63.4
2023-02-02T10:44:24.077Z,63.3
2023-02-02T10:45:25.157Z,62.9
2023-02-02T10:46:26.116Z,62.8
2023-02-02T10:47:27.052Z,63.3
2023-02-02T10:48:27.936Z,63.6
2023-02-02T10:49:29.171Z,64
2023-02-02T10:50:30.169Z,64.5
2023-02-02T10:51:31.186Z,64.5
2023-02-02T10:52:32.105Z,64.9
2023-02-02T10:53:33.057Z,65.3
2023-02-02T10:54:38.113Z,65.4
2023-02-02T10:55:35.001Z,64.7
2023-02-02T10:56:35.900Z,64.3
2023-02-02T10:57:36.959Z,64.4
2023-02-02T10:58:38.031Z,64.8
2023-02-02T10:59:38.981Z,64.9
2023-02-02T11:00:40.027Z,64.8
2023-02-02T11:01:41.053Z,65
2023-02-02T11:02:42.004Z,65.3
2023-02-02T11:03:43.009Z,65.3
2023-02-02T11:04:44.118Z,65.6
2023-02-02T11:05:45.230Z,65.9
2023-02-02T11:06:46.093Z,65.4
2023-02-02T11:07:47.118Z,65.1
2023-02-02T11:08:47.941Z,64.6
2023-02-02T11:09:49.101Z,64.3
2023-02-02T11:10:50.074Z,63.8
2023-02-02T11:11:51.085Z,63.7
2023-02-02T11:12:51.959Z,62.8
2023-02-02T11:13:52.980Z,61.4
2023-02-02T11:14:53.939Z,61.1
2023-02-02T11:15:55.023Z,61.4
2023-02-02T11:16:55.985Z,61.1
2023-02-02T11:17:57.077Z,60.5
2023-02-02T11:18:58.086Z,59.9
2023-02-02T11:19:58.887Z,59.2
2023-02-02T11:21:00.055Z,60
2023-02-02T11:22:01.262Z,59.5
2023-02-02T11:23:02.090Z,59.4
2023-02-02T11:24:03.040Z,59.7
2023-02-02T11:25:03.977Z,60.5
2023-02-02T11:26:04.987Z,60.5
2023-02-02T11:27:06.049Z,61
2023-02-02T11:28:07.018Z,61
2023-02-02T11:29:07.980Z,61.5
2023-02-02T11:30:09.057Z,60.5
2023-02-02T11:31:10.142Z,60.1
2023-02-02T11:32:11.147Z,60.2
2023-02-02T11:33:12.078Z,59.9
2023-02-02T11:34:13.137Z,58.1
2023-02-02T11:35:14.136Z,58.1
2023-02-02T11:36:15.081Z,57.8
2023-02-02T11:37:16.205Z,57.9
2023-02-02T11:38:17.000Z,58.5
2023-02-02T11:39:17.948Z,58.5
2023-02-02T11:40:19.146Z,58.3
2023-02-02T11:41:20.285Z,58.3
2023-02-02T11:42:21.094Z,58.1
2023-02-02T11:43:22.200Z,57.6
2023-02-02T11:44:22.996Z,57.2
2023-02-02T11:45:24.119Z,56.3
2023-02-02T11:46:25.077Z,55.7
2023-02-02T11:47:26.083Z,55.5
2023-02-02T11:48:27.099Z,56
2023-02-02T11:49:28.187Z,57.5
2023-02-02T11:50:29.091Z,57.4
2023-02-02T11:51:30.140Z,58.1
2023-02-02T11:52:32.553Z,58.4
2023-02-02T11:53:32.177Z,58.7
2023-02-02T11:54:33.195Z,58.9
2023-02-02T11:55:34.109Z,58.8
2023-02-02T11:56:35.158Z,58.9
2023-02-02T11:57:36.207Z,59.1
2023-02-02T11:58:37.097Z,59.9
2023-02-02T11:59:38.097Z,60.5
2023-02-02T12:00:39.193Z,59
2023-02-02T12:01:40.321Z,57.3
2023-02-02T12:02:41.045Z,56.5
2023-02-02T12:03:42.056Z,56
2023-02-02T12:04:42.983Z,57
2023-02-02T12:05:44.039Z,56.7
2023-02-02T12:06:45.009Z,56.8
2023-02-02T12:07:46.055Z,56.8
2023-02-02T12:08:47.071Z,57
2023-02-02T12:09:47.967Z,57
2023-02-02T12:10:49.186Z,57.4
2023-02-02T12:11:50.256Z,57.9
2023-02-02T12:12:51.058Z,58
2023-02-02T12:13:51.998Z,58.6
2023-02-02T12:14:53.025Z,58.8
2023-02-02T12:15:54.181Z,59.3
2023-02-02T12:16:55.186Z,59.5
2023-02-02T12:17:56.219Z,59.4
2023-02-02T12:18:57.086Z,58.7
2023-02-02T12:19:58.299Z,59.5
2023-02-02T12:20:59.244Z,60.2
2023-02-02T12:22:00.213Z,60.3
2023-02-02T12:23:01.242Z,59.8
2023-02-02T12:24:02.239Z,59.5
2023-02-02T12:25:03.180Z,60.1
2023-02-02T12:26:04.218Z,60.5
2023-02-02T12:27:05.045Z,60.5
2023-02-02T12:28:06.138Z,60.5
2023-02-02T12:29:07.173Z,60.9
2023-02-02T12:30:08.161Z,60.9
2023-02-02T12:31:09.298Z,61
2023-02-02T12:32:10.138Z,61.6
2023-02-02T12:33:11.127Z,62.3
2023-02-02T12:34:12.248Z,62.3
2023-02-02T12:35:13.307Z,62.7
2023-02-02T12:36:14.077Z,62.7
2023-02-02T12:37:15.135Z,62.8
2023-02-02T12:38:16.170Z,62.9
2023-02-02T12:39:17.089Z,62.4
2023-02-02T12:40:18.149Z,62.6
2023-02-02T12:41:19.179Z,63
2023-02-02T12:42:20.239Z,63
2023-02-02T12:43:21.240Z,62.8
2023-02-02T12:44:22.039Z,62.8
2023-02-02T12:45:23.063Z,62.8
2023-02-02T12:46:24.158Z,62.8
2023-02-02T12:47:25.198Z,63.2
2023-02-02T12:48:26.217Z,63.1
2023-02-02T12:49:27.119Z,63.5
2023-02-02T12:50:28.438Z,63.9
2023-02-02T12:51:29.218Z,64
2023-02-02T12:52:30.200Z,63.7
2023-02-02T12:53:31.140Z,63.7
2023-02-02T12:54:43.323Z,63.9
2023-02-02T12:55:33.179Z,64.3
2023-02-02T12:56:34.237Z,64.7
2023-02-02T12:57:35.239Z,64.7
2023-02-02T12:58:36.163Z,64
2023-02-02T12:59:37.277Z,63.5
2023-02-02T13:00:38.432Z,63.5
2023-02-02T13:01:39.178Z,63.9
2023-02-02T13:02:40.321Z,64.6
2023-02-02T13:03:41.267Z,64.7
2023-02-02T13:05:03.622Z,64.7
2023-02-02T13:06:05.263Z,64.9
2023-02-02T13:07:06.157Z,64.9
2023-02-02T13:08:07.261Z,63.7
2023-02-02T13:09:08.126Z,62.8
2023-02-02T13:10:09.220Z,61.9
2023-02-02T13:11:10.206Z,60.8
2023-02-02T13:12:11.191Z,59.3
2023-02-02T13:13:12.181Z,59.4
2023-02-02T13:14:13.182Z,59
2023-02-02T13:15:14.251Z,59.3
2023-02-02T13:16:15.173Z,60
2023-02-02T13:17:16.161Z,59.5
2023-02-02T13:18:17.222Z,59.5
2023-02-02T13:19:18.177Z,59.8
2023-02-02T13:20:19.053Z,59.7
2023-02-02T13:21:20.263Z,59.5
2023-02-02T13:22:21.258Z,60.1
2023-02-02T13:23:22.259Z,59.8
2023-02-02T13:24:23.105Z,60.6
2023-02-02T13:25:24.482Z,60.8
2023-02-02T13:26:25.268Z,61.2
2023-02-02T13:27:26.139Z,60.9
2023-02-02T13:28:27.190Z,60.7
2023-02-02T13:29:28.118Z,61
2023-02-02T13:30:29.235Z,61.4
2023-02-02T13:31:30.263Z,61.4
2023-02-02T13:32:31.100Z,61.4
2023-02-02T13:33:32.060Z,61.5
2023-02-02T13:34:33.049Z,61.2
2023-02-02T13:35:33.961Z,60.9
2023-02-02T13:36:35.099Z,59.8
2023-02-02T13:37:36.104Z,59.5
2023-02-02T13:38:36.961Z,59.6
2023-02-02T13:39:38.023Z,58.9
2023-02-02T13:40:39.026Z,59.2